sensor_id;sensor_type;location;lat;lon;timestamp;P1;durP1;ratioP1;P2;durP2;ratioP2
21258;SDS011;10787;53.364;-1.480;2022-10-28T00:00:55;17.27;;;7.50;;
21258;SDS011;10787;53.364;-1.480;2022-10-28T00:03:30;20.75;;;7.60;;
21258;SDS011;10787;53.364;-1.480;2022-10-28T00:06:03;21.17;;;7.95;;
21258;SDS011;10787;53.364;-1.480;2022-10-28T00:08:31;14.82;;;6.95;;
21258;SDS011;10787;53.364;-1.480;2022-10-28T00:11:01;18.27;;;7.18;;
21258;SDS011;10787;53.364;-1.480;2022-10-28T00:13:28;17.73;;;6.90;;
21258;SDS011;10787;53.364;-1.480;2022-10-28T00:15:54;18.10;;;7.13;;
21258;SDS011;10787;53.364;-1.480;2022-10-28T00:18:20;18.95;;;7.80;;
21258;SDS011;10787;53.364;-1.480;2022-10-28T00:20:46;18.08;;;7.82;;
21258;SDS011;10787;53.364;-1.480;2022-10-28T00:23:11;20.38;;;9.02;;
21258;SDS011;10787;53.364;-1.480;2022-10-28T00:25:37;17.00;;;8.48;;
21258;SDS011;10787;53.364;-1.480;2022-10-28T00:28:03;17.75;;;8.60;;
21258;SDS011;10787;53.364;-1.480;2022-10-28T00:30:29;19.85;;;10.27;;
21258;SDS011;10787;53.364;-1.480;2022-10-28T00:32:55;20.80;;;9.70;;
21258;SDS011;10787;53.364;-1.480;2022-10-28T00:35:21;21.55;;;10.00;;
21258;SDS011;10787;53.364;-1.480;2022-10-28T00:37:47;19.60;;;10.02;;
21258;SDS011;10787;53.364;-1.480;2022-10-28T00:40:17;20.48;;;10.30;;
21258;SDS011;10787;53.364;-1.480;2022-10-28T00:42:43;20.38;;;10.25;;
21258;SDS011;10787;53.364;-1.480;2022-10-28T00:45:09;21.90;;;11.00;;
21258;SDS011;10787;53.364;-1.480;2022-10-28T00:47:41;19.10;;;10.23;;
21258;SDS011;10787;53.364;-1.480;2022-10-28T00:52:50;19.95;;;10.70;;
21258;SDS011;10787;53.364;-1.480;2022-10-28T00:55:20;24.98;;;10.82;;
21258;SDS011;10787;53.364;-1.480;2022-10-28T00:57:46;23.27;;;10.77;;
21258;SDS011;10787;53.364;-1.480;2022-10-28T01:00:13;24.95;;;11.48;;
21258;SDS011;10787;53.364;-1.480;2022-10-28T01:02:44;26.05;;;11.73;;
21258;SDS011;10787;53.364;-1.480;2022-10-28T01:05:12;22.23;;;12.23;;
21258;SDS011;10787;53.364;-1.480;2022-10-28T01:07:41;26.73;;;12.27;;
21258;SDS011;10787;53.364;-1.480;2022-10-28T01:10:08;25.10;;;11.27;;
21258;SDS011;10787;53.364;-1.480;2022-10-28T01:18:00;25.00;;;12.77;;
21258;SDS011;10787;53.364;-1.480;2022-10-28T01:39:37;18.33;;;10.35;;
21258;SDS011;10787;53.364;-1.480;2022-10-28T01:42:17;18.42;;;10.10;;
21258;SDS011;10787;53.364;-1.480;2022-10-28T01:47:46;15.82;;;8.88;;
21258;SDS011;10787;53.364;-1.480;2022-10-28T01:50:16;15.93;;;8.75;;
21258;SDS011;10787;53.364;-1.480;2022-10-28T01:52:50;16.40;;;8.07;;
21258;SDS011;10787;53.364;-1.480;2022-10-28T01:55:25;17.73;;;8.63;;
21258;SDS011;10787;53.364;-1.480;2022-10-28T01:57:54;19.15;;;8.55;;
21258;SDS011;10787;53.364;-1.480;2022-10-28T02:00:23;17.95;;;8.65;;
21258;SDS011;10787;53.364;-1.480;2022-10-28T02:02:50;16.17;;;7.78;;
21258;SDS011;10787;53.364;-1.480;2022-10-28T02:13:30;14.32;;;7.18;;
21258;SDS011;10787;53.364;-1.480;2022-10-28T02:30:03;12.52;;;6.45;;
21258;SDS011;10787;53.364;-1.480;2022-10-28T02:32:43;11.07;;;5.93;;
21258;SDS011;10787;53.364;-1.480;2022-10-28T02:35:16;11.18;;;6.07;;
21258;SDS011;10787;53.364;-1.480;2022-10-28T02:37:50;14.05;;;6.35;;
21258;SDS011;10787;53.364;-1.480;2022-10-28T02:40:20;11.13;;;6.00;;
21258;SDS011;10787;53.364;-1.480;2022-10-28T02:42:54;12.15;;;6.20;;
21258;SDS011;10787;53.364;-1.480;2022-10-28T02:45:27;12.93;;;6.43;;
21258;SDS011;10787;53.364;-1.480;2022-10-28T02:48:09;12.27;;;5.72;;
21258;SDS011;10787;53.364;-1.480;2022-10-28T02:50:42;11.68;;;5.82;;
21258;SDS011;10787;53.364;-1.480;2022-10-28T02:53:20;11.73;;;6.07;;
21258;SDS011;10787;53.364;-1.480;2022-10-28T02:55:51;11.68;;;5.78;;
21258;SDS011;10787;53.364;-1.480;2022-10-28T02:58:21;10.93;;;5.75;;
21258;SDS011;10787;53.364;-1.480;2022-10-28T03:00:47;14.07;;;6.10;;
21258;SDS011;10787;53.364;-1.480;2022-10-28T03:03:13;12.43;;;6.35;;
21258;SDS011;10787;53.364;-1.480;2022-10-28T03:05:39;12.57;;;5.95;;
21258;SDS011;10787;53.364;-1.480;2022-10-28T03:08:06;12.68;;;6.47;;
21258;SDS011;10787;53.364;-1.480;2022-10-28T03:10:32;14.82;;;6.43;;
21258;SDS011;10787;53.364;-1.480;2022-10-28T03:12:58;16.35;;;6.50;;
21258;SDS011;10787;53.364;-1.480;2022-10-28T03:15:24;14.75;;;7.07;;
21258;SDS011;10787;53.364;-1.480;2022-10-28T03:17:50;14.82;;;6.60;;
21258;SDS011;10787;53.364;-1.480;2022-10-28T03:20:16;11.77;;;6.47;;
21258;SDS011;10787;53.364;-1.480;2022-10-28T03:22:42;14.20;;;6.20;;
21258;SDS011;10787;53.364;-1.480;2022-10-28T03:25:08;15.20;;;6.22;;
21258;SDS011;10787;53.364;-1.480;2022-10-28T03:27:34;13.35;;;5.95;;
21258;SDS011;10787;53.364;-1.480;2022-10-28T03:30:00;11.95;;;5.82;;
21258;SDS011;10787;53.364;-1.480;2022-10-28T03:32:26;11.88;;;6.18;;
21258;SDS011;10787;53.364;-1.480;2022-10-28T03:34:52;12.18;;;6.20;;
21258;SDS011;10787;53.364;-1.480;2022-10-28T03:37:18;13.25;;;6.45;;
21258;SDS011;10787;53.364;-1.480;2022-10-28T03:39:43;17.98;;;6.70;;
21258;SDS011;10787;53.364;-1.480;2022-10-28T03:42:09;15.80;;;6.55;;
21258;SDS011;10787;53.364;-1.480;2022-10-28T03:44:35;13.90;;;6.35;;
21258;SDS011;10787;53.364;-1.480;2022-10-28T03:47:01;15.98;;;6.88;;
21258;SDS011;10787;53.364;-1.480;2022-10-28T03:49:27;18.45;;;6.82;;
21258;SDS011;10787;53.364;-1.480;2022-10-28T03:51:53;17.92;;;6.22;;
21258;SDS011;10787;53.364;-1.480;2022-10-28T03:54:18;15.15;;;6.53;;
21258;SDS011;10787;53.364;-1.480;2022-10-28T03:56:44;19.00;;;7.85;;
21258;SDS011;10787;53.364;-1.480;2022-10-28T03:59:10;16.85;;;8.02;;
21258;SDS011;10787;53.364;-1.480;2022-10-28T04:01:36;17.60;;;7.97;;
21258;SDS011;10787;53.364;-1.480;2022-10-28T04:04:02;18.40;;;8.77;;
21258;SDS011;10787;53.364;-1.480;2022-10-28T04:06:28;16.17;;;8.82;;
21258;SDS011;10787;53.364;-1.480;2022-10-28T04:08:54;16.58;;;8.02;;
21258;SDS011;10787;53.364;-1.480;2022-10-28T04:11:20;17.30;;;8.73;;
21258;SDS011;10787;53.364;-1.480;2022-10-28T04:13:46;19.33;;;9.65;;
21258;SDS011;10787;53.364;-1.480;2022-10-28T04:16:12;22.65;;;9.63;;
21258;SDS011;10787;53.364;-1.480;2022-10-28T04:18:37;21.85;;;10.13;;
21258;SDS011;10787;53.364;-1.480;2022-10-28T04:21:03;20.55;;;10.02;;
21258;SDS011;10787;53.364;-1.480;2022-10-28T04:23:29;24.20;;;10.52;;
21258;SDS011;10787;53.364;-1.480;2022-10-28T04:25:55;25.30;;;11.02;;
21258;SDS011;10787;53.364;-1.480;2022-10-28T04:28:21;22.38;;;11.20;;
21258;SDS011;10787;53.364;-1.480;2022-10-28T04:30:50;27.83;;;11.82;;
21258;SDS011;10787;53.364;-1.480;2022-10-28T04:33:16;22.77;;;11.15;;
21258;SDS011;10787;53.364;-1.480;2022-10-28T04:35:41;19.75;;;11.18;;
21258;SDS011;10787;53.364;-1.480;2022-10-28T04:38:08;24.48;;;11.13;;
21258;SDS011;10787;53.364;-1.480;2022-10-28T04:40:35;23.20;;;10.85;;
21258;SDS011;10787;53.364;-1.480;2022-10-28T04:43:00;23.70;;;10.23;;
21258;SDS011;10787;53.364;-1.480;2022-10-28T04:45:26;25.08;;;10.73;;
21258;SDS011;10787;53.364;-1.480;2022-10-28T04:47:58;24.05;;;10.43;;
21258;SDS011;10787;53.364;-1.480;2022-10-28T04:50:25;23.88;;;11.23;;
21258;SDS011;10787;53.364;-1.480;2022-10-28T04:52:52;25.48;;;11.00;;
21258;SDS011;10787;53.364;-1.480;2022-10-28T04:55:18;24.55;;;11.55;;
21258;SDS011;10787;53.364;-1.480;2022-10-28T04:57:51;23.48;;;11.43;;
21258;SDS011;10787;53.364;-1.480;2022-10-28T05:00:18;22.45;;;11.25;;
21258;SDS011;10787;53.364;-1.480;2022-10-28T05:02:44;19.77;;;10.90;;
21258;SDS011;10787;53.364;-1.480;2022-10-28T05:05:10;19.77;;;10.85;;
21258;SDS011;10787;53.364;-1.480;2022-10-28T05:07:36;31.00;;;11.70;;
21258;SDS011;10787;53.364;-1.480;2022-10-28T05:10:02;23.15;;;11.40;;
21258;SDS011;10787;53.364;-1.480;2022-10-28T05:12:28;23.17;;;11.65;;
21258;SDS011;10787;53.364;-1.480;2022-10-28T05:14:54;24.77;;;11.98;;
21258;SDS011;10787;53.364;-1.480;2022-10-28T05:17:21;27.00;;;12.10;;
21258;SDS011;10787;53.364;-1.480;2022-10-28T05:19:47;22.88;;;11.85;;
21258;SDS011;10787;53.364;-1.480;2022-10-28T05:22:13;21.33;;;11.77;;
21258;SDS011;10787;53.364;-1.480;2022-10-28T05:24:39;23.35;;;12.85;;
21258;SDS011;10787;53.364;-1.480;2022-10-28T05:27:05;24.35;;;12.18;;
21258;SDS011;10787;53.364;-1.480;2022-10-28T05:29:31;26.67;;;12.30;;
21258;SDS011;10787;53.364;-1.480;2022-10-28T05:31:57;27.08;;;12.43;;
21258;SDS011;10787;53.364;-1.480;2022-10-28T05:34:23;24.88;;;12.88;;
21258;SDS011;10787;53.364;-1.480;2022-10-28T05:36:49;29.55;;;12.48;;
21258;SDS011;10787;53.364;-1.480;2022-10-28T05:39:15;23.25;;;11.60;;
21258;SDS011;10787;53.364;-1.480;2022-10-28T05:41:41;23.08;;;11.35;;
21258;SDS011;10787;53.364;-1.480;2022-10-28T05:44:08;26.33;;;11.18;;
21258;SDS011;10787;53.364;-1.480;2022-10-28T05:46:34;21.85;;;11.18;;
21258;SDS011;10787;53.364;-1.480;2022-10-28T05:49:00;16.83;;;10.05;;
21258;SDS011;10787;53.364;-1.480;2022-10-28T05:51:26;22.83;;;10.85;;
21258;SDS011;10787;53.364;-1.480;2022-10-28T05:53:52;19.40;;;9.93;;
21258;SDS011;10787;53.364;-1.480;2022-10-28T05:56:19;21.73;;;10.02;;
21258;SDS011;10787;53.364;-1.480;2022-10-28T05:58:44;25.48;;;9.98;;
21258;SDS011;10787;53.364;-1.480;2022-10-28T06:01:12;17.33;;;9.32;;
21258;SDS011;10787;53.364;-1.480;2022-10-28T06:03:38;20.17;;;9.02;;
21258;SDS011;10787;53.364;-1.480;2022-10-28T06:06:04;18.77;;;8.75;;
21258;SDS011;10787;53.364;-1.480;2022-10-28T06:08:30;18.88;;;7.93;;
21258;SDS011;10787;53.364;-1.480;2022-10-28T06:10:56;16.85;;;7.40;;
21258;SDS011;10787;53.364;-1.480;2022-10-28T06:13:22;16.10;;;7.93;;
21258;SDS011;10787;53.364;-1.480;2022-10-28T06:15:51;13.85;;;6.65;;
21258;SDS011;10787;53.364;-1.480;2022-10-28T06:18:19;14.50;;;7.63;;
21258;SDS011;10787;53.364;-1.480;2022-10-28T06:20:55;12.25;;;6.68;;
21258;SDS011;10787;53.364;-1.480;2022-10-28T06:23:23;15.43;;;6.80;;
21258;SDS011;10787;53.364;-1.480;2022-10-28T06:25:50;14.70;;;7.47;;
21258;SDS011;10787;53.364;-1.480;2022-10-28T06:28:20;16.60;;;7.30;;
21258;SDS011;10787;53.364;-1.480;2022-10-28T06:30:46;18.83;;;7.03;;
21258;SDS011;10787;53.364;-1.480;2022-10-28T06:33:11;16.13;;;7.03;;
21258;SDS011;10787;53.364;-1.480;2022-10-28T06:35:37;15.88;;;7.00;;
21258;SDS011;10787;53.364;-1.480;2022-10-28T06:38:03;13.02;;;6.97;;
21258;SDS011;10787;53.364;-1.480;2022-10-28T06:40:29;16.35;;;6.65;;
21258;SDS011;10787;53.364;-1.480;2022-10-28T06:43:05;13.73;;;6.32;;
21258;SDS011;10787;53.364;-1.480;2022-10-28T06:45:38;13.45;;;6.10;;
21258;SDS011;10787;53.364;-1.480;2022-10-28T06:48:04;12.88;;;6.03;;
21258;SDS011;10787;53.364;-1.480;2022-10-28T06:50:31;14.90;;;6.03;;
21258;SDS011;10787;53.364;-1.480;2022-10-28T06:52:57;14.65;;;6.07;;
21258;SDS011;10787;53.364;-1.480;2022-10-28T06:55:24;11.68;;;5.43;;
21258;SDS011;10787;53.364;-1.480;2022-10-28T06:57:50;12.52;;;5.43;;
21258;SDS011;10787;53.364;-1.480;2022-10-28T07:00:16;11.13;;;4.95;;
21258;SDS011;10787;53.364;-1.480;2022-10-28T07:02:42;13.48;;;4.43;;
21258;SDS011;10787;53.364;-1.480;2022-10-28T07:05:08;12.30;;;4.30;;
21258;SDS011;10787;53.364;-1.480;2022-10-28T07:07:34;9.98;;;4.30;;
21258;SDS011;10787;53.364;-1.480;2022-10-28T07:10:06;10.23;;;4.00;;
21258;SDS011;10787;53.364;-1.480;2022-10-28T07:12:32;9.18;;;4.15;;
21258;SDS011;10787;53.364;-1.480;2022-10-28T07:14:58;12.05;;;4.60;;
21258;SDS011;10787;53.364;-1.480;2022-10-28T07:17:23;10.48;;;4.57;;
21258;SDS011;10787;53.364;-1.480;2022-10-28T07:19:49;11.90;;;4.55;;
21258;SDS011;10787;53.364;-1.480;2022-10-28T07:22:15;11.43;;;4.05;;
21258;SDS011;10787;53.364;-1.480;2022-10-28T07:24:42;9.75;;;4.65;;
21258;SDS011;10787;53.364;-1.480;2022-10-28T07:27:08;13.25;;;5.30;;
21258;SDS011;10787;53.364;-1.480;2022-10-28T07:29:34;8.70;;;4.20;;
21258;SDS011;10787;53.364;-1.480;2022-10-28T07:32:00;12.00;;;4.30;;
21258;SDS011;10787;53.364;-1.480;2022-10-28T07:34:26;8.65;;;3.53;;
21258;SDS011;10787;53.364;-1.480;2022-10-28T07:36:52;15.75;;;7.38;;
21258;SDS011;10787;53.364;-1.480;2022-10-28T07:39:20;8.38;;;4.03;;
21258;SDS011;10787;53.364;-1.480;2022-10-28T07:41:46;9.68;;;3.80;;
21258;SDS011;10787;53.364;-1.480;2022-10-28T07:44:13;11.63;;;3.97;;
21258;SDS011;10787;53.364;-1.480;2022-10-28T07:46:39;9.88;;;4.20;;
21258;SDS011;10787;53.364;-1.480;2022-10-28T07:49:05;9.88;;;4.10;;
21258;SDS011;10787;53.364;-1.480;2022-10-28T07:51:31;9.85;;;4.00;;
21258;SDS011;10787;53.364;-1.480;2022-10-28T07:53:57;9.27;;;3.67;;
21258;SDS011;10787;53.364;-1.480;2022-10-28T07:56:23;6.35;;;3.40;;
21258;SDS011;10787;53.364;-1.480;2022-10-28T07:58:49;15.75;;;3.88;;
21258;SDS011;10787;53.364;-1.480;2022-10-28T08:01:17;8.35;;;3.33;;
21258;SDS011;10787;53.364;-1.480;2022-10-28T08:03:44;13.85;;;3.80;;
21258;SDS011;10787;53.364;-1.480;2022-10-28T08:06:13;12.40;;;3.33;;
21258;SDS011;10787;53.364;-1.480;2022-10-28T08:08:41;10.40;;;3.30;;
21258;SDS011;10787;53.364;-1.480;2022-10-28T08:13:39;8.82;;;3.50;;
21258;SDS011;10787;53.364;-1.480;2022-10-28T08:16:05;7.30;;;2.90;;
21258;SDS011;10787;53.364;-1.480;2022-10-28T08:18:32;12.02;;;3.20;;
21258;SDS011;10787;53.364;-1.480;2022-10-28T08:21:00;8.80;;;3.13;;
21258;SDS011;10787;53.364;-1.480;2022-10-28T08:23:27;5.43;;;2.40;;
21258;SDS011;10787;53.364;-1.480;2022-10-28T08:25:53;10.40;;;2.85;;
21258;SDS011;10787;53.364;-1.480;2022-10-28T08:28:19;6.57;;;2.33;;
21258;SDS011;10787;53.364;-1.480;2022-10-28T08:30:45;5.78;;;2.20;;
21258;SDS011;10787;53.364;-1.480;2022-10-28T08:33:11;5.85;;;2.05;;
21258;SDS011;10787;53.364;-1.480;2022-10-28T08:35:37;4.70;;;1.90;;
21258;SDS011;10787;53.364;-1.480;2022-10-28T08:38:06;4.80;;;1.80;;
21258;SDS011;10787;53.364;-1.480;2022-10-28T08:43:20;2.80;;;1.17;;
21258;SDS011;10787;53.364;-1.480;2022-10-28T08:46:03;3.22;;;1.20;;
21258;SDS011;10787;53.364;-1.480;2022-10-28T08:48:55;14.45;;;2.40;;
21258;SDS011;10787;53.364;-1.480;2022-10-28T08:51:22;6.47;;;1.00;;
21258;SDS011;10787;53.364;-1.480;2022-10-28T08:53:59;5.13;;;1.00;;
21258;SDS011;10787;53.364;-1.480;2022-10-28T08:56:34;3.88;;;0.95;;
21258;SDS011;10787;53.364;-1.480;2022-10-28T08:59:12;3.47;;;0.82;;
21258;SDS011;10787;53.364;-1.480;2022-10-28T09:07:03;5.28;;;1.00;;
21258;SDS011;10787;53.364;-1.480;2022-10-28T09:09:31;1.45;;;0.63;;
21258;SDS011;10787;53.364;-1.480;2022-10-28T09:15:01;2.78;;;0.90;;
21258;SDS011;10787;53.364;-1.480;2022-10-28T09:23:19;1.65;;;0.60;;
21258;SDS011;10787;53.364;-1.480;2022-10-28T09:26:11;1.92;;;0.77;;
21258;SDS011;10787;53.364;-1.480;2022-10-28T09:36:57;3.00;;;0.60;;
21258;SDS011;10787;53.364;-1.480;2022-10-28T09:39:42;2.40;;;0.80;;
21258;SDS011;10787;53.364;-1.480;2022-10-28T09:42:37;3.55;;;0.70;;
21258;SDS011;10787;53.364;-1.480;2022-10-28T09:45:06;2.08;;;0.70;;
21258;SDS011;10787;53.364;-1.480;2022-10-28T09:47:42;3.83;;;0.70;;
21258;SDS011;10787;53.364;-1.480;2022-10-28T09:50:13;1.75;;;0.50;;
21258;SDS011;10787;53.364;-1.480;2022-10-28T09:55:43;1.33;;;0.50;;
21258;SDS011;10787;53.364;-1.480;2022-10-28T09:58:10;0.93;;;0.40;;
21258;SDS011;10787;53.364;-1.480;2022-10-28T10:00:38;1.70;;;0.50;;
21258;SDS011;10787;53.364;-1.480;2022-10-28T10:03:04;1.02;;;0.30;;
21258;SDS011;10787;53.364;-1.480;2022-10-28T10:05:30;0.90;;;0.40;;
21258;SDS011;10787;53.364;-1.480;2022-10-28T10:08:04;2.70;;;0.50;;
21258;SDS011;10787;53.364;-1.480;2022-10-28T10:10:51;0.73;;;0.30;;
21258;SDS011;10787;53.364;-1.480;2022-10-28T10:13:31;0.82;;;0.40;;
21258;SDS011;10787;53.364;-1.480;2022-10-28T10:16:01;1.92;;;0.47;;
21258;SDS011;10787;53.364;-1.480;2022-10-28T10:18:31;2.17;;;0.30;;
21258;SDS011;10787;53.364;-1.480;2022-10-28T10:20:58;0.93;;;0.40;;
21258;SDS011;10787;53.364;-1.480;2022-10-28T10:28:38;0.63;;;0.38;;
21258;SDS011;10787;53.364;-1.480;2022-10-28T10:31:15;0.65;;;0.30;;
21258;SDS011;10787;53.364;-1.480;2022-10-28T10:33:50;1.20;;;0.38;;
21258;SDS011;10787;53.364;-1.480;2022-10-28T10:36:18;7.82;;;0.88;;
21258;SDS011;10787;53.364;-1.480;2022-10-28T10:38:54;4.18;;;0.70;;
21258;SDS011;10787;53.364;-1.480;2022-10-28T10:44:23;1.65;;;0.47;;
21258;SDS011;10787;53.364;-1.480;2022-10-28T10:47:34;4.47;;;0.70;;
21258;SDS011;10787;53.364;-1.480;2022-10-28T10:49:35;1.15;;;0.30;;
21258;SDS011;10787;53.364;-1.480;2022-10-28T10:52:02;1.33;;;0.40;;
21258;SDS011;10787;53.364;-1.480;2022-10-28T10:54:32;1.85;;;0.30;;
21258;SDS011;10787;53.364;-1.480;2022-10-28T10:57:13;6.18;;;0.75;;
21258;SDS011;10787;53.364;-1.480;2022-10-28T10:59:44;1.40;;;0.40;;
21258;SDS011;10787;53.364;-1.480;2022-10-28T11:02:29;1.73;;;0.60;;
21258;SDS011;10787;53.364;-1.480;2022-10-28T11:05:00;1.42;;;0.40;;
21258;SDS011;10787;53.364;-1.480;2022-10-28T11:07:28;2.13;;;0.43;;
21258;SDS011;10787;53.364;-1.480;2022-10-28T11:09:58;1.98;;;0.38;;
21258;SDS011;10787;53.364;-1.480;2022-10-28T11:12:29;1.00;;;0.50;;
21258;SDS011;10787;53.364;-1.480;2022-10-28T11:17:40;2.20;;;0.57;;
21258;SDS011;10787;53.364;-1.480;2022-10-28T11:26:18;1.92;;;0.50;;
21258;SDS011;10787;53.364;-1.480;2022-10-28T11:31:33;1.23;;;0.40;;
21258;SDS011;10787;53.364;-1.480;2022-10-28T11:37:02;3.38;;;0.45;;
21258;SDS011;10787;53.364;-1.480;2022-10-28T11:39:52;2.28;;;0.50;;
21258;SDS011;10787;53.364;-1.480;2022-10-28T11:43:13;0.40;;;0.40;;
21258;SDS011;10787;53.364;-1.480;2022-10-28T11:46:04;1.05;;;0.60;;
21258;SDS011;10787;53.364;-1.480;2022-10-28T11:54:39;1.67;;;0.50;;
21258;SDS011;10787;53.364;-1.480;2022-10-28T11:57:37;1.42;;;0.50;;
21258;SDS011;10787;53.364;-1.480;2022-10-28T12:08:17;1.42;;;0.50;;
21258;SDS011;10787;53.364;-1.480;2022-10-28T12:16:39;1.85;;;0.43;;
21258;SDS011;10787;53.364;-1.480;2022-10-28T12:19:21;2.45;;;0.50;;
21258;SDS011;10787;53.364;-1.480;2022-10-28T12:24:32;1.63;;;0.50;;
21258;SDS011;10787;53.364;-1.480;2022-10-28T12:27:00;1.40;;;0.50;;
21258;SDS011;10787;53.364;-1.480;2022-10-28T12:29:39;1.83;;;0.80;;
21258;SDS011;10787;53.364;-1.480;2022-10-28T12:32:15;1.25;;;0.60;;
21258;SDS011;10787;53.364;-1.480;2022-10-28T12:35:11;2.42;;;0.75;;
21258;SDS011;10787;53.364;-1.480;2022-10-28T12:37:43;3.97;;;0.82;;
21258;SDS011;10787;53.364;-1.480;2022-10-28T12:40:20;1.75;;;0.60;;
21258;SDS011;10787;53.364;-1.480;2022-10-28T12:42:53;1.98;;;0.70;;
21258;SDS011;10787;53.364;-1.480;2022-10-28T12:45:30;4.82;;;0.90;;
21258;SDS011;10787;53.364;-1.480;2022-10-28T12:48:03;2.47;;;0.68;;
21258;SDS011;10787;53.364;-1.480;2022-10-28T12:50:52;1.63;;;0.50;;
21258;SDS011;10787;53.364;-1.480;2022-10-28T13:00:51;2.33;;;0.73;;
21258;SDS011;10787;53.364;-1.480;2022-10-28T13:03:20;1.40;;;0.60;;
21258;SDS011;10787;53.364;-1.480;2022-10-28T13:19:36;3.70;;;0.90;;
21258;SDS011;10787;53.364;-1.480;2022-10-28T13:28:00;5.88;;;1.00;;
21258;SDS011;10787;53.364;-1.480;2022-10-28T13:30:27;4.18;;;1.20;;
21258;SDS011;10787;53.364;-1.480;2022-10-28T13:33:06;2.63;;;0.70;;
21258;SDS011;10787;53.364;-1.480;2022-10-28T13:35:38;4.03;;;1.00;;
21258;SDS011;10787;53.364;-1.480;2022-10-28T13:38:07;2.97;;;0.85;;
21258;SDS011;10787;53.364;-1.480;2022-10-28T13:43:01;5.50;;;0.98;;
21258;SDS011;10787;53.364;-1.480;2022-10-28T13:48:43;3.20;;;0.98;;
21258;SDS011;10787;53.364;-1.480;2022-10-28T13:53:39;3.05;;;0.98;;
21258;SDS011;10787;53.364;-1.480;2022-10-28T14:01:35;4.13;;;0.90;;
21258;SDS011;10787;53.364;-1.480;2022-10-28T14:04:03;4.80;;;0.80;;
21258;SDS011;10787;53.364;-1.480;2022-10-28T14:06:31;3.72;;;0.80;;
21258;SDS011;10787;53.364;-1.480;2022-10-28T14:08:59;3.33;;;0.93;;
21258;SDS011;10787;53.364;-1.480;2022-10-28T14:11:25;3.78;;;0.93;;
21258;SDS011;10787;53.364;-1.480;2022-10-28T14:13:59;4.10;;;0.80;;
21258;SDS011;10787;53.364;-1.480;2022-10-28T14:19:15;2.40;;;0.73;;
21258;SDS011;10787;53.364;-1.480;2022-10-28T14:24:31;2.97;;;1.05;;
21258;SDS011;10787;53.364;-1.480;2022-10-28T14:30:15;3.03;;;0.88;;
21258;SDS011;10787;53.364;-1.480;2022-10-28T14:35:00;3.03;;;0.82;;
21258;SDS011;10787;53.364;-1.480;2022-10-28T14:40:24;2.25;;;0.70;;
21258;SDS011;10787;53.364;-1.480;2022-10-28T14:49:16;14.35;;;2.22;;
21258;SDS011;10787;53.364;-1.480;2022-10-28T14:51:54;12.93;;;2.90;;
21258;SDS011;10787;53.364;-1.480;2022-10-28T14:54:35;3.20;;;0.85;;
21258;SDS011;10787;53.364;-1.480;2022-10-28T14:57:08;5.03;;;1.10;;
21258;SDS011;10787;53.364;-1.480;2022-10-28T14:59:36;15.63;;;3.30;;
21258;SDS011;10787;53.364;-1.480;2022-10-28T15:02:09;5.55;;;1.33;;
21258;SDS011;10787;53.364;-1.480;2022-10-28T15:04:37;9.88;;;1.50;;
21258;SDS011;10787;53.364;-1.480;2022-10-28T15:07:04;8.55;;;1.80;;
21258;SDS011;10787;53.364;-1.480;2022-10-28T15:09:36;10.60;;;2.15;;
21258;SDS011;10787;53.364;-1.480;2022-10-28T15:12:07;5.28;;;1.52;;
21258;SDS011;10787;53.364;-1.480;2022-10-28T15:14:37;5.25;;;1.60;;
21258;SDS011;10787;53.364;-1.480;2022-10-28T15:19:46;3.67;;;1.05;;
21258;SDS011;10787;53.364;-1.480;2022-10-28T15:22:26;5.20;;;1.23;;
21258;SDS011;10787;53.364;-1.480;2022-10-28T15:24:58;5.80;;;1.20;;
21258;SDS011;10787;53.364;-1.480;2022-10-28T15:27:35;2.65;;;1.10;;
21258;SDS011;10787;53.364;-1.480;2022-10-28T15:30:03;5.65;;;1.60;;
21258;SDS011;10787;53.364;-1.480;2022-10-28T15:32:45;11.75;;;2.42;;
21258;SDS011;10787;53.364;-1.480;2022-10-28T15:38:01;28.48;;;6.40;;
21258;SDS011;10787;53.364;-1.480;2022-10-28T15:40:47;8.20;;;2.15;;
21258;SDS011;10787;53.364;-1.480;2022-10-28T15:43:17;5.35;;;2.08;;
21258;SDS011;10787;53.364;-1.480;2022-10-28T15:46:06;4.10;;;1.75;;
21258;SDS011;10787;53.364;-1.480;2022-10-28T15:48:39;5.47;;;1.83;;
21258;SDS011;10787;53.364;-1.480;2022-10-28T15:51:09;3.50;;;1.60;;
21258;SDS011;10787;53.364;-1.480;2022-10-28T15:53:38;30.90;;;4.70;;
21258;SDS011;10787;53.364;-1.480;2022-10-28T15:56:06;11.50;;;2.15;;
21258;SDS011;10787;53.364;-1.480;2022-10-28T15:58:39;4.22;;;1.35;;
21258;SDS011;10787;53.364;-1.480;2022-10-28T16:03:59;10.43;;;6.45;;
21258;SDS011;10787;53.364;-1.480;2022-10-28T16:11:31;5.03;;;1.42;;
21258;SDS011;10787;53.364;-1.480;2022-10-28T16:14:02;6.25;;;1.45;;
21258;SDS011;10787;53.364;-1.480;2022-10-28T16:16:50;4.13;;;1.38;;
21258;SDS011;10787;53.364;-1.480;2022-10-28T16:19:29;3.70;;;1.45;;
21258;SDS011;10787;53.364;-1.480;2022-10-28T16:22:01;6.95;;;1.90;;
21258;SDS011;10787;53.364;-1.480;2022-10-28T16:24:28;6.28;;;1.80;;
21258;SDS011;10787;53.364;-1.480;2022-10-28T16:26:53;3.78;;;1.30;;
21258;SDS011;10787;53.364;-1.480;2022-10-28T16:29:39;8.32;;;1.58;;
21258;SDS011;10787;53.364;-1.480;2022-10-28T16:32:04;5.95;;;1.60;;
21258;SDS011;10787;53.364;-1.480;2022-10-28T16:34:32;3.42;;;1.52;;
21258;SDS011;10787;53.364;-1.480;2022-10-28T16:36:58;5.15;;;1.88;;
21258;SDS011;10787;53.364;-1.480;2022-10-28T16:39:23;8.98;;;2.92;;
21258;SDS011;10787;53.364;-1.480;2022-10-28T16:41:49;10.02;;;4.50;;
21258;SDS011;10787;53.364;-1.480;2022-10-28T16:44:18;11.48;;;5.82;;
21258;SDS011;10787;53.364;-1.480;2022-10-28T16:46:44;14.50;;;5.30;;
21258;SDS011;10787;53.364;-1.480;2022-10-28T16:49:10;9.35;;;4.82;;
21258;SDS011;10787;53.364;-1.480;2022-10-28T16:51:36;8.20;;;3.17;;
21258;SDS011;10787;53.364;-1.480;2022-10-28T16:54:02;18.42;;;6.15;;
21258;SDS011;10787;53.364;-1.480;2022-10-28T16:56:29;12.85;;;3.72;;
21258;SDS011;10787;53.364;-1.480;2022-10-28T16:58:55;8.70;;;2.88;;
21258;SDS011;10787;53.364;-1.480;2022-10-28T17:01:21;13.18;;;3.40;;
21258;SDS011;10787;53.364;-1.480;2022-10-28T17:03:47;6.93;;;4.07;;
21258;SDS011;10787;53.364;-1.480;2022-10-28T17:06:13;9.77;;;3.80;;
21258;SDS011;10787;53.364;-1.480;2022-10-28T17:08:39;7.22;;;3.10;;
21258;SDS011;10787;53.364;-1.480;2022-10-28T17:11:05;10.13;;;3.03;;
21258;SDS011;10787;53.364;-1.480;2022-10-28T17:13:32;7.40;;;3.10;;
21258;SDS011;10787;53.364;-1.480;2022-10-28T17:15:58;8.15;;;2.92;;
21258;SDS011;10787;53.364;-1.480;2022-10-28T17:18:23;8.82;;;3.00;;
21258;SDS011;10787;53.364;-1.480;2022-10-28T17:20:59;8.40;;;2.80;;
21258;SDS011;10787;53.364;-1.480;2022-10-28T17:23:27;9.20;;;2.25;;
21258;SDS011;10787;53.364;-1.480;2022-10-28T17:25:54;6.45;;;2.92;;
21258;SDS011;10787;53.364;-1.480;2022-10-28T17:28:24;6.82;;;3.30;;
21258;SDS011;10787;53.364;-1.480;2022-10-28T17:30:50;11.20;;;3.45;;
21258;SDS011;10787;53.364;-1.480;2022-10-28T17:33:15;10.13;;;4.32;;
21258;SDS011;10787;53.364;-1.480;2022-10-28T17:35:41;10.98;;;4.53;;
21258;SDS011;10787;53.364;-1.480;2022-10-28T17:38:07;9.35;;;4.25;;
21258;SDS011;10787;53.364;-1.480;2022-10-28T17:40:33;9.15;;;3.60;;
21258;SDS011;10787;53.364;-1.480;2022-10-28T17:42:59;8.68;;;3.40;;
21258;SDS011;10787;53.364;-1.480;2022-10-28T17:45:24;8.18;;;3.03;;
21258;SDS011;10787;53.364;-1.480;2022-10-28T17:47:50;8.18;;;2.80;;
21258;SDS011;10787;53.364;-1.480;2022-10-28T17:50:16;7.80;;;3.17;;
21258;SDS011;10787;53.364;-1.480;2022-10-28T17:52:42;6.47;;;2.50;;
21258;SDS011;10787;53.364;-1.480;2022-10-28T17:55:08;7.93;;;2.55;;
21258;SDS011;10787;53.364;-1.480;2022-10-28T17:57:34;8.20;;;2.35;;
21258;SDS011;10787;53.364;-1.480;2022-10-28T18:00:00;10.88;;;3.28;;
21258;SDS011;10787;53.364;-1.480;2022-10-28T18:02:26;8.73;;;3.00;;